createdAt,value
2019-01-24T00:02:01.928Z,100702.75
2019-01-24T00:04:31.036Z,100697.22
2019-01-24T00:07:00.141Z,100697.20
2019-01-24T00:09:29.250Z,100697.20
2019-01-24T00:11:58.341Z,100711.06
2019-01-24T00:14:27.795Z,100713.20
2019-01-24T00:16:57.016Z,100712.39
2019-01-24T00:19:26.024Z,100717.78
2019-01-24T00:21:55.027Z,100714.91
2019-01-24T00:24:24.650Z,100707.75
2019-01-24T00:26:56.982Z,100717.37
2019-01-24T00:29:26.024Z,100718.13
2019-01-24T00:31:55.037Z,100716.46
2019-01-24T00:34:24.047Z,100722.30
2019-01-24T00:36:53.163Z,100722.30
2019-01-24T00:39:22.244Z,100723.64
2019-01-24T00:41:51.341Z,100724.52
2019-01-24T00:44:20.422Z,100722.87
2019-01-24T00:46:49.733Z,100724.15
2019-01-24T00:49:18.946Z,100724.15
2019-01-24T00:51:48.032Z,100729.45
2019-01-24T00:54:17.140Z,100729.45
2019-01-24T00:56:46.220Z,100740.08
2019-01-24T00:59:15.359Z,100740.08
2019-01-24T01:01:44.403Z,100742.06
2019-01-24T01:04:13.611Z,100741.63
2019-01-24T01:06:47.022Z,100740.78
2019-01-24T01:09:13.632Z,100729.59
2019-01-24T01:11:42.811Z,100729.59
2019-01-24T01:14:12.727Z,100728.73
2019-01-24T01:16:41.852Z,100734.55
2019-01-24T01:19:11.033Z,100735.45
2019-01-24T01:21:40.147Z,100738.84
2019-01-24T01:24:10.268Z,100742.22
2019-01-24T01:26:39.411Z,100742.59
2019-01-24T01:29:08.407Z,100741.73
2019-01-24T01:31:38.586Z,100743.00
2019-01-24T01:34:07.695Z,100746.33
2019-01-24T01:36:36.719Z,100746.33
2019-01-24T01:39:08.458Z,100741.78
2019-01-24T01:41:37.571Z,100741.78
2019-01-24T01:44:06.641Z,100741.03
2019-01-24T01:46:35.682Z,100741.03
2019-01-24T01:49:04.928Z,100749.78
2019-01-24T01:51:34.055Z,100749.78
2019-01-24T01:54:04.568Z,100761.45
2019-01-24T01:56:33.658Z,100762.66
2019-01-24T01:59:08.600Z,100767.69
2019-01-24T02:01:33.687Z,100762.71
2019-01-24T02:04:02.720Z,100763.54
2019-01-24T02:06:31.907Z,100767.27
2019-01-24T02:09:02.221Z,100767.27
2019-01-24T02:11:31.486Z,100772.28
2019-01-24T02:14:01.515Z,100778.14
2019-01-24T02:16:30.600Z,100775.64
2019-01-24T02:19:00.839Z,100776.07
2019-01-24T02:21:30.800Z,100783.55
2019-01-24T02:23:59.967Z,100777.70
2019-01-24T02:26:29.142Z,100777.70
2019-01-24T02:28:59.258Z,100775.62
2019-01-24T02:31:28.483Z,100780.97
2019-01-24T02:33:57.622Z,100780.98
2019-01-24T02:36:26.732Z,100792.67
2019-01-24T02:38:55.838Z,100793.11
2019-01-24T02:41:24.889Z,100792.32
2019-01-24T02:43:53.936Z,100792.32
2019-01-24T02:46:24.090Z,100785.62
2019-01-24T02:48:53.205Z,100783.22
2019-01-24T02:51:22.246Z,100783.13
2019-01-24T02:53:51.348Z,100784.82
2019-01-24T02:56:21.743Z,100788.94
2019-01-24T02:58:50.810Z,100792.22
2019-01-24T03:01:19.903Z,100793.61
2019-01-24T03:03:48.922Z,100804.41
2019-01-24T03:06:18.957Z,100806.13
2019-01-24T03:08:47.986Z,100812.38
2019-01-24T03:11:17.116Z,100814.02
2019-01-24T03:13:46.135Z,100814.11
2019-01-24T03:16:15.226Z,100822.43
2019-01-24T03:18:44.946Z,100820.77
2019-01-24T03:21:14.124Z,100826.53
2019-01-24T03:23:43.246Z,100826.53
2019-01-24T03:26:12.327Z,100832.78
2019-01-24T03:28:41.340Z,100831.50
2019-01-24T03:31:10.451Z,100829.86
2019-01-24T03:33:39.553Z,100830.31
2019-01-24T03:36:08.677Z,100838.23
2019-01-24T03:38:44.965Z,100839.52
2019-01-24T03:41:22.948Z,100833.23
2019-01-24T03:43:52.317Z,100831.95
2019-01-24T03:46:21.677Z,100831.95
2019-01-24T03:48:50.763Z,100838.99
2019-01-24T03:51:20.659Z,100837.34
2019-01-24T03:53:49.728Z,100849.46
2019-01-24T03:56:18.852Z,100849.46
2019-01-24T03:58:48.055Z,100850.70
2019-01-24T04:01:17.176Z,100846.14
2019-01-24T04:03:46.263Z,100847.41
2019-01-24T04:06:15.316Z,100848.64
2019-01-24T04:08:44.331Z,100840.72
2019-01-24T04:11:13.311Z,100843.59
2019-01-24T04:13:42.345Z,100839.02
2019-01-24T04:16:11.473Z,100837.74
2019-01-24T04:18:42.940Z,100836.09
2019-01-24T04:21:12.988Z,100835.71
2019-01-24T04:23:42.013Z,100827.78
2019-01-24T04:26:11.063Z,100827.78
2019-01-24T04:28:43.430Z,100822.77
2019-01-24T04:31:12.508Z,100828.61
2019-01-24T04:33:41.525Z,100824.91
2019-01-24T04:36:10.563Z,100817.86
2019-01-24T04:38:39.612Z,100822.82
2019-01-24T04:41:15.832Z,100823.66
2019-01-24T04:43:44.952Z,100826.14
2019-01-24T04:46:14.010Z,100819.10
2019-01-24T04:48:43.040Z,100819.10
2019-01-24T04:51:12.146Z,100821.14
2019-01-24T04:53:41.163Z,100827.00
2019-01-24T04:56:10.271Z,100836.61
2019-01-24T04:58:39.293Z,100839.52
2019-01-24T05:01:08.463Z,100839.52
2019-01-24T05:03:37.479Z,100832.86
2019-01-24T05:06:08.281Z,100832.86
2019-01-24T05:08:37.413Z,100833.30
2019-01-24T05:11:06.502Z,100833.30
2019-01-24T05:13:35.538Z,100823.67
2019-01-24T05:16:07.042Z,100823.69
2019-01-24T05:18:36.086Z,100824.52
2019-01-24T05:21:05.199Z,100826.59
2019-01-24T05:23:36.239Z,100831.59
2019-01-24T05:26:05.409Z,100836.59
2019-01-24T05:28:34.501Z,100846.62
2019-01-24T05:31:03.706Z,100846.62
2019-01-24T05:33:32.835Z,100849.12
2019-01-24T05:36:01.986Z,100856.21
2019-01-24T05:38:32.472Z,100856.21
2019-01-24T05:41:04.662Z,100857.86
2019-01-24T05:43:35.819Z,100863.68
2019-01-24T05:46:07.093Z,100862.43
2019-01-24T05:48:36.161Z,100870.33
2019-01-24T05:51:05.494Z,100865.35
2019-01-24T05:53:35.951Z,100862.84
2019-01-24T05:56:05.110Z,100877.83
2019-01-24T05:58:34.171Z,100871.61
2019-01-24T06:01:05.008Z,100865.76
2019-01-24T06:03:34.112Z,100875.36
2019-01-24T06:06:04.566Z,100888.67
2019-01-24T06:08:33.640Z,100886.59
2019-01-24T06:11:05.048Z,100889.92
2019-01-24T06:13:34.077Z,100889.06
2019-01-24T06:16:03.324Z,100896.57
2019-01-24T06:18:32.371Z,100907.41
2019-01-24T06:21:02.742Z,100907.41
2019-01-24T06:23:32.049Z,100918.24
2019-01-24T06:26:01.525Z,100920.73
2019-01-24T06:28:30.560Z,100926.14
2019-01-24T06:30:59.653Z,100926.14
2019-01-24T06:33:36.328Z,100941.14
2019-01-24T06:36:05.477Z,100954.45
2019-01-24T06:38:34.683Z,100954.45
2019-01-24T06:41:03.800Z,100954.45
2019-01-24T06:43:34.546Z,100958.20
2019-01-24T06:47:01.106Z,100958.20
2019-01-24T06:49:30.207Z,100973.61
2019-01-24T06:51:59.335Z,100974.04
2019-01-24T06:54:28.447Z,100968.63
2019-01-24T06:56:57.543Z,100968.63
2019-01-24T06:59:27.633Z,100965.70
2019-01-24T07:01:56.735Z,100962.80
2019-01-24T07:04:29.065Z,100962.78
2019-01-24T07:06:58.205Z,100965.30
2019-01-24T07:09:29.456Z,100957.38
2019-01-24T07:11:59.398Z,100950.30
2019-01-24T07:14:28.625Z,100961.14
2019-01-24T07:16:59.978Z,100962.39
2019-01-24T07:19:35.852Z,100966.13
2019-01-24T07:30:26.500Z,100970.71
2019-01-24T07:57:54.804Z,100991.53
2019-01-24T08:13:43.681Z,101009.87
2019-01-24T08:16:48.407Z,101019.05
2019-01-24T08:19:11.181Z,101018.62
2019-01-24T08:21:48.729Z,101018.62
2019-01-24T08:24:39.395Z,101008.62
2019-01-24T08:27:27.425Z,101011.54
2019-01-24T08:30:07.359Z,101021.95
2019-01-24T08:32:47.676Z,101021.12
2019-01-24T08:35:17.117Z,101020.69
2019-01-24T08:37:46.642Z,101023.63
2019-01-24T08:40:33.536Z,101029.45
2019-01-24T08:43:07.357Z,101029.45
2019-01-24T08:45:39.236Z,101027.78
2019-01-24T08:48:11.693Z,101033.61
2019-01-24T08:50:41.188Z,101037.80
2019-01-24T08:53:10.591Z,101037.80
2019-01-24T08:55:45.841Z,101041.13
2019-01-24T08:58:12.895Z,101041.53
2019-01-24T09:00:42.258Z,101041.53
2019-01-24T09:03:11.884Z,101056.13
2019-01-24T09:05:48.669Z,101055.70
2019-01-24T09:08:22.535Z,101057.78
2019-01-24T09:10:51.798Z,101063.63
2019-01-24T09:13:26.226Z,101063.63
2019-01-24T09:15:56.924Z,101064.02
2019-01-24T09:18:33.637Z,101064.02
2019-01-24T09:21:04.201Z,101068.21
2019-01-24T09:23:33.616Z,101061.53
2019-01-24T09:26:06.045Z,101058.62
2019-01-24T09:28:37.867Z,101058.62
2019-01-24T09:31:07.072Z,101059.89
2019-01-24T09:33:40.451Z,101058.64
2019-01-24T09:36:10.795Z,101056.54
2019-01-24T09:38:42.849Z,101055.30
2019-01-24T09:41:12.524Z,101056.94
2019-01-24T09:43:44.004Z,101069.45
2019-01-24T09:46:13.196Z,101069.45
2019-01-24T09:48:45.997Z,101060.70
2019-01-24T09:51:36.320Z,101058.62
2019-01-24T09:54:09.479Z,101058.62
2019-01-24T09:56:38.686Z,101072.38
2019-01-24T09:59:09.279Z,101069.45
2019-01-24T10:01:38.825Z,101061.97
2019-01-24T10:04:08.205Z,101070.30
2019-01-24T10:06:37.296Z,101070.30
2019-01-24T10:09:12.563Z,101084.05
2019-01-24T10:11:49.905Z,101086.11
2019-01-24T10:14:22.005Z,101091.13
2019-01-24T10:16:55.389Z,101084.89
2019-01-24T10:19:29.535Z,101084.89
2019-01-24T10:21:58.644Z,101088.66
2019-01-24T10:24:27.750Z,101088.66
2019-01-24T10:26:57.050Z,101084.91
2019-01-24T10:29:26.315Z,101088.23
2019-01-24T10:31:55.537Z,101088.64
2019-01-24T10:34:24.629Z,101088.64
2019-01-24T10:36:54.914Z,101085.28
2019-01-24T10:39:26.408Z,101089.86
2019-01-24T10:41:55.772Z,101089.86
2019-01-24T10:44:24.847Z,101084.84
2019-01-24T10:46:53.952Z,101089.04
2019-01-24T10:49:22.961Z,101090.63
2019-01-24T10:51:52.153Z,101092.72
2019-01-24T10:54:22.071Z,101092.37
2019-01-24T10:56:51.285Z,101091.96
2019-01-24T10:59:20.500Z,101093.63
2019-01-24T11:01:49.586Z,101095.27
2019-01-24T11:04:18.703Z,101092.76
2019-01-24T11:06:50.115Z,101093.97
2019-01-24T11:09:18.784Z,101094.78
2019-01-24T11:11:48.628Z,101094.78
2019-01-24T11:14:17.804Z,101087.72
2019-01-24T11:16:46.915Z,101096.52
2019-01-24T11:19:18.378Z,101094.39
2019-01-24T11:21:47.395Z,101091.45
2019-01-24T11:24:16.445Z,101092.63
2019-01-24T11:26:45.549Z,101098.13
2019-01-24T11:29:14.649Z,101095.59
2019-01-24T11:31:43.788Z,101094.69
2019-01-24T11:34:12.911Z,101101.41
2019-01-24T11:36:45.141Z,101101.48
2019-01-24T11:39:14.318Z,101099.78
2019-01-24T11:41:43.631Z,101111.42
2019-01-24T11:44:12.677Z,101105.95
2019-01-24T11:46:43.109Z,101116.88
2019-01-24T11:49:12.309Z,101115.28
2019-01-24T11:51:41.407Z,101121.95
2019-01-24T11:54:10.496Z,101123.19
2019-01-24T11:56:40.521Z,101118.19
2019-01-24T11:59:10.666Z,101121.11
2019-01-24T12:01:43.749Z,101109.83
2019-01-24T12:04:12.740Z,101100.60
2019-01-24T12:06:41.807Z,101094.40
2019-01-24T12:09:10.964Z,101081.77
2019-01-24T12:11:43.426Z,101075.49
2019-01-24T12:14:12.437Z,101072.19
2019-01-24T12:16:41.475Z,101073.30
2019-01-24T12:19:10.520Z,101083.30
2019-01-24T12:21:43.088Z,101083.75
2019-01-24T12:24:12.182Z,101095.83
2019-01-24T12:26:41.346Z,101095.83
2019-01-24T12:29:33.071Z,101108.36
2019-01-24T12:32:02.176Z,101113.58
2019-01-24T12:34:31.190Z,101103.97
2019-01-24T12:37:01.400Z,101099.80
2019-01-24T12:39:32.648Z,101107.73
2019-01-24T12:42:01.676Z,101100.97
2019-01-24T12:44:31.496Z,101100.55
2019-01-24T12:47:01.699Z,101097.27
2019-01-24T12:49:30.867Z,101096.39
2019-01-24T12:52:02.182Z,101096.39
2019-01-24T12:54:32.008Z,101089.25
2019-01-24T12:57:02.651Z,101089.25
2019-01-24T12:59:31.676Z,101091.39
2019-01-24T13:02:00.963Z,101091.70
2019-01-24T13:04:29.994Z,101093.44
2019-01-24T13:07:01.951Z,101084.98
2019-01-24T13:09:31.126Z,101083.32
2019-01-24T13:12:00.166Z,101083.32
2019-01-24T13:14:29.222Z,101098.50
2019-01-24T13:16:58.537Z,101092.19
2019-01-24T13:19:27.679Z,101090.55
2019-01-24T13:21:56.995Z,101088.51
2019-01-24T13:24:29.944Z,101080.59
2019-01-24T13:26:59.395Z,101071.30
2019-01-24T13:29:28.524Z,101073.28
2019-01-24T13:31:57.701Z,101068.84
2019-01-24T13:35:03.069Z,101073.78
2019-01-24T13:38:02.325Z,101073.70
2019-01-24T13:41:18.384Z,101070.43
2019-01-24T13:43:47.485Z,101080.81
2019-01-24T13:46:16.683Z,101080.81
2019-01-24T13:48:48.486Z,101065.42
2019-01-24T13:53:45.345Z,101055.27
2019-01-24T13:56:14.728Z,101055.27
2019-01-24T13:58:43.837Z,101055.44
2019-01-24T14:01:12.948Z,101048.66
2019-01-24T14:03:53.298Z,101047.83
2019-01-24T14:06:22.459Z,101052.89
2019-01-24T14:08:55.302Z,101056.72
2019-01-24T14:11:24.452Z,101056.72
2019-01-24T14:13:56.678Z,101054.07
2019-01-24T14:16:25.819Z,101062.05
2019-01-24T14:18:55.589Z,101067.89
2019-01-24T14:21:24.897Z,101075.09
2019-01-24T14:23:57.857Z,101082.61
2019-01-24T14:26:33.155Z,101082.61
2019-01-24T14:29:02.612Z,101104.37
2019-01-24T14:31:31.769Z,101105.70
2019-01-24T14:34:02.860Z,101105.70
2019-01-24T14:36:33.241Z,101101.78
2019-01-24T14:39:02.258Z,101108.09
2019-01-24T14:41:31.261Z,101113.12
2019-01-24T14:44:00.301Z,101122.33
2019-01-24T14:46:29.468Z,101128.16
2019-01-24T14:48:58.677Z,101126.91
2019-01-24T14:51:28.063Z,101123.95
2019-01-24T14:53:57.799Z,101128.10
2019-01-24T14:56:26.836Z,101124.84
2019-01-24T14:58:57.137Z,101127.35
2019-01-24T15:01:27.312Z,101134.44
2019-01-24T15:03:58.438Z,101134.44
2019-01-24T15:06:29.979Z,101140.26
2019-01-24T15:09:38.043Z,101140.23
2019-01-24T15:12:07.157Z,101139.41
2019-01-24T15:14:36.199Z,101137.33
2019-01-24T15:17:05.495Z,101135.25
2019-01-24T15:19:34.515Z,101135.25
2019-01-24T15:22:05.166Z,101132.39
2019-01-24T15:24:34.262Z,101135.67
2019-01-24T15:27:03.371Z,101128.18
2019-01-24T15:29:32.421Z,101136.97
2019-01-24T15:32:01.451Z,101134.48
2019-01-24T15:34:30.543Z,101129.86
2019-01-24T15:36:59.726Z,101136.13
2019-01-24T15:39:28.896Z,101138.25
2019-01-24T15:41:58.026Z,101134.87
2019-01-24T15:44:28.245Z,101139.49
2019-01-24T15:46:57.621Z,101137.39
2019-01-24T15:49:26.667Z,101137.39
2019-01-24T15:51:56.051Z,101141.59
2019-01-24T15:54:31.879Z,101139.06
2019-01-24T15:59:53.519Z,101154.95
2019-01-24T16:02:23.086Z,101152.39
2019-01-24T16:04:53.590Z,101159.52
2019-01-24T16:07:22.699Z,101152.42
2019-01-24T16:09:53.086Z,101156.59
2019-01-24T16:12:22.154Z,101156.59
2019-01-24T16:14:52.385Z,101156.62
2019-01-24T16:17:22.687Z,101159.92
2019-01-24T16:19:54.161Z,101160.80
2019-01-24T16:22:23.190Z,101160.80
2019-01-24T16:24:52.308Z,101158.68
2019-01-24T16:27:21.408Z,101155.36
2019-01-24T16:29:54.720Z,101156.19
2019-01-24T16:32:24.705Z,101158.25
2019-01-24T16:34:53.701Z,101158.69
2019-01-24T16:37:25.255Z,101172.89
2019-01-24T16:39:54.454Z,101172.89
2019-01-24T16:42:25.416Z,101185.80
2019-01-24T16:44:57.092Z,101185.80
2019-01-24T16:47:26.744Z,101189.95
2019-01-24T16:49:57.872Z,101198.72
2019-01-24T16:52:27.082Z,101183.27
2019-01-24T16:54:59.547Z,101187.03
2019-01-24T16:57:28.575Z,101194.14
2019-01-24T16:59:58.845Z,101197.45
2019-01-24T17:02:28.254Z,101203.33
2019-01-24T17:04:57.269Z,101201.23
2019-01-24T17:07:26.424Z,101203.73
2019-01-24T17:09:57.040Z,101204.55
2019-01-24T17:12:26.223Z,101214.16
2019-01-24T17:14:57.665Z,101206.23
2019-01-24T17:17:26.848Z,101206.23
2019-01-24T17:19:57.453Z,101219.98
2019-01-24T17:22:26.663Z,101223.73
2019-01-24T17:24:55.951Z,101233.35
2019-01-24T17:27:25.031Z,101238.77
2019-01-24T17:29:55.347Z,101238.34
2019-01-24T17:32:25.743Z,101236.66
2019-01-24T17:34:54.903Z,101244.59
2019-01-24T17:37:23.974Z,101242.88
2019-01-24T17:39:56.222Z,101242.88
2019-01-24T17:42:25.373Z,101249.56
2019-01-24T17:44:55.823Z,101246.23
2019-01-24T17:47:24.879Z,101246.23
2019-01-24T17:49:53.974Z,101240.41
2019-01-24T17:52:24.074Z,101253.73
2019-01-24T17:54:53.606Z,101258.77
2019-01-24T17:57:24.457Z,101263.72
2019-01-24T17:59:53.933Z,101261.67
2019-01-24T18:02:23.137Z,101267.56
2019-01-24T18:04:52.522Z,101269.55
2019-01-24T18:07:21.986Z,101269.55
2019-01-24T18:09:51.752Z,101265.81
2019-01-24T18:12:20.962Z,101265.75
2019-01-24T18:14:51.485Z,101272.88
2019-01-24T18:17:21.212Z,101272.48
2019-01-24T18:19:52.239Z,101271.66
2019-01-24T18:22:22.454Z,101271.25
2019-01-24T18:24:53.202Z,101270.00
2019-01-24T18:27:30.486Z,101273.70
2019-01-24T18:30:06.116Z,101274.13
2019-01-24T18:32:41.586Z,101274.13
2019-01-24T18:35:15.741Z,101275.78
2019-01-24T18:37:46.596Z,101272.87
2019-01-24T18:40:20.793Z,101272.87
2019-01-24T18:42:50.629Z,101275.02
2019-01-24T18:45:25.447Z,101275.02
2019-01-24T18:47:55.907Z,101292.52
2019-01-24T18:50:27.678Z,101311.26
2019-01-24T18:52:57.126Z,101315.03
2019-01-24T18:55:27.747Z,101306.61
2019-01-24T18:57:56.961Z,101310.81
2019-01-24T19:00:46.655Z,101317.92
2019-01-24T19:03:15.903Z,101307.53
2019-01-24T19:05:47.296Z,101315.92
2019-01-24T19:08:16.714Z,101309.19
2019-01-24T19:10:46.277Z,101309.97
2019-01-24T19:13:15.929Z,101316.66
2019-01-24T19:15:46.988Z,101316.66
2019-01-24T19:18:17.398Z,101310.73
2019-01-24T19:20:46.496Z,101310.73
2019-01-24T19:23:15.655Z,101321.67
2019-01-24T19:25:44.837Z,101321.66
2019-01-24T19:28:16.355Z,101317.89
2019-01-24T19:30:46.673Z,101317.89
2019-01-24T19:33:16.054Z,101311.64
2019-01-24T19:35:50.357Z,101312.88
2019-01-24T19:38:20.950Z,101312.88
2019-01-24T19:40:50.288Z,101316.27
2019-01-24T19:43:21.529Z,101320.85
2019-01-24T19:45:50.933Z,101319.16
2019-01-24T19:48:20.172Z,101325.44
2019-01-24T19:50:49.559Z,101314.59
2019-01-24T19:53:18.949Z,101327.91
2019-01-24T19:55:58.689Z,101327.91
2019-01-24T19:58:31.999Z,101332.88
2019-01-24T20:01:01.303Z,101327.45
2019-01-24T20:03:32.016Z,101325.39
2019-01-24T20:06:01.451Z,101342.05
2019-01-24T20:08:30.934Z,101339.05
2019-01-24T20:11:02.664Z,101331.23
2019-01-24T20:13:33.478Z,101338.72
2019-01-24T20:16:02.901Z,101342.05
2019-01-24T20:18:32.103Z,101349.47
2019-01-24T20:21:02.259Z,101328.67
2019-01-24T20:23:32.860Z,101336.66
2019-01-24T20:26:04.925Z,101337.80
2019-01-24T20:28:37.297Z,101341.22
2019-01-24T20:31:06.908Z,101343.72
2019-01-24T20:33:37.052Z,101344.48
2019-01-24T20:36:06.561Z,101353.67
2019-01-24T20:38:35.733Z,101353.73
2019-01-24T20:41:06.272Z,101351.20
2019-01-24T20:43:37.809Z,101352.75
2019-01-24T20:46:08.972Z,101352.75
2019-01-24T20:48:38.459Z,101356.61
2019-01-24T20:51:07.793Z,101358.31
2019-01-24T20:53:37.166Z,101353.67
2019-01-24T20:56:06.655Z,101353.67
2019-01-24T20:58:38.323Z,101361.23
2019-01-24T21:01:07.762Z,101367.45
2019-01-24T21:03:37.047Z,101367.45
2019-01-24T21:06:08.795Z,101366.94
2019-01-24T21:08:41.965Z,101371.58
2019-01-24T21:11:13.426Z,101365.73
2019-01-24T21:13:44.108Z,101365.73
2019-01-24T21:16:17.324Z,101356.20
2019-01-24T21:18:47.258Z,101364.16
2019-01-24T21:21:16.618Z,101368.31
2019-01-24T21:23:45.807Z,101372.89
2019-01-24T21:26:15.075Z,101366.94
2019-01-24T21:28:44.384Z,101369.06
2019-01-24T21:31:14.014Z,101370.34
2019-01-24T21:33:43.309Z,101365.33
2019-01-24T21:36:12.780Z,101365.33
2019-01-24T21:38:43.498Z,101375.74
2019-01-24T21:41:12.882Z,101376.15
2019-01-24T21:43:46.166Z,101375.39
2019-01-24T21:46:15.851Z,101383.68
2019-01-24T21:48:47.045Z,101376.61
2019-01-24T21:51:17.055Z,101386.64
2019-01-24T21:53:46.477Z,101390.85
2019-01-24T21:56:24.698Z,101385.47
2019-01-24T21:58:54.884Z,101387.91
2019-01-24T22:01:24.581Z,101389.50
2019-01-24T22:03:55.589Z,101389.52
2019-01-24T22:06:27.360Z,101396.97
2019-01-24T22:09:01.024Z,101401.21
2019-01-24T22:11:31.715Z,101406.65
2019-01-24T22:14:01.089Z,101401.62
2019-01-24T22:16:30.728Z,101408.73
2019-01-24T22:19:00.059Z,101407.87
2019-01-24T22:21:29.342Z,101400.38
2019-01-24T22:23:58.571Z,101403.30
2019-01-24T22:26:27.725Z,101406.73
2019-01-24T22:28:56.776Z,101409.58
2019-01-24T22:31:27.887Z,101399.96
2019-01-24T22:33:56.982Z,101399.53
2019-01-24T22:36:26.047Z,101405.34
2019-01-24T22:38:55.190Z,101405.34
2019-01-24T22:41:24.351Z,101407.00
2019-01-24T22:43:53.474Z,101415.84
2019-01-24T22:46:22.519Z,101412.55
2019-01-24T22:48:51.632Z,101412.55
2019-01-24T22:51:20.801Z,101401.12
2019-01-24T22:53:49.883Z,101400.75
2019-01-24T22:56:19.019Z,101396.27
2019-01-24T22:58:48.288Z,101397.95
2019-01-24T23:01:36.581Z,101397.05
2019-01-24T23:04:24.621Z,101391.21
2019-01-24T23:06:55.095Z,101402.56
2019-01-24T23:09:24.137Z,101401.62
2019-01-24T23:11:53.380Z,101396.56
2019-01-24T23:14:22.474Z,101387.02
2019-01-24T23:16:51.517Z,101390.42
2019-01-24T23:19:22.978Z,101396.63
2019-01-24T23:21:52.127Z,101396.63
2019-01-24T23:24:21.256Z,101401.59
2019-01-24T23:26:50.325Z,101408.71
2019-01-24T23:29:19.740Z,101412.84
2019-01-24T23:31:48.980Z,101407.41
2019-01-24T23:34:18.122Z,101405.31
2019-01-24T23:36:50.600Z,101398.12
2019-01-24T23:39:19.811Z,101402.00
2019-01-24T23:41:49.014Z,101396.62
2019-01-24T23:44:18.218Z,101402.84
2019-01-24T23:46:47.585Z,101403.66
2019-01-24T23:49:16.795Z,101405.31
2019-01-24T23:51:46.011Z,101401.97
2019-01-24T23:54:15.203Z,101401.97
2019-01-24T23:56:44.498Z,101392.84
2019-01-24T23:59:13.646Z,101394.12
